Time;durP1;ratioP1;P1;durP2;ratioP2;P2;SDS_P1;SDS_P2;PMS_P1;PMS_P2;Temp;Humidity;BMP_temperature;BMP_pressure;BME280_temperature;BME280_humidity;BME280_pressure;Samples;Min_cycle;Max_cycle;Signal;HPM_P1;HPM_P2
2023/09/01 00:07:21;;;;;;;0.50;0.40;;;;;;;20.82;71.65;100902.94;21076677;28;20048;-58
2023/09/01 00:17:23;;;;;;;0.98;0.50;;;;;;;20.80;71.60;100896.81;21075080;28;20511;-58
2023/09/01 00:27:25;;;;;;;1.05;0.65;;;;;;;20.79;71.40;100888.88;21075008;28;20056;-58
2023/09/01 00:37:27;;;;;;;0.45;0.40;;;;;;;20.78;71.27;100897.97;21075146;28;20058;-58
2023/09/01 00:47:29;;;;;;;0.95;0.40;;;;;;;20.76;71.25;100900.81;21073582;28;20438;-58
2023/09/01 00:57:30;;;;;;;1.00;0.60;;;;;;;20.75;71.04;100890.16;21072882;28;20122;-58
2023/09/01 01:07:58;;;;;;;1.02;0.55;;;;;;;20.68;71.01;100888.06;21071327;28;20062;-58
2023/09/01 01:18:04;;;;;;;0.52;0.52;;;;;;;20.70;71.02;100891.47;21072061;28;20526;-59
2023/09/01 01:28:07;;;;;;;0.90;0.57;;;;;;;20.68;70.78;100890.78;21111228;28;20105;-59
2023/09/01 01:38:26;;;;;;;0.50;0.50;;;;;;;20.67;70.79;100896.34;21097846;28;20446;-59
2023/09/01 01:48:27;;;;;;;0.50;0.40;;;;;;;20.69;70.56;100906.00;21096601;28;20519;-58
2023/09/01 01:58:30;;;;;;;0.43;0.43;;;;;;;20.69;70.39;100906.00;21098530;28;20458;-58
2023/09/01 02:08:32;;;;;;;0.70;0.60;;;;;;;20.69;70.42;100895.16;21079651;28;20059;-58
2023/09/01 02:18:34;;;;;;;1.95;0.60;;;;;;;20.62;70.21;100885.97;21095980;28;20040;-58
2023/09/01 02:28:35;;;;;;;0.50;0.50;;;;;;;20.67;70.24;100908.00;21096569;28;20040;-58
2023/09/01 02:38:37;;;;;;;1.27;0.47;;;;;;;20.65;70.20;100899.19;21085030;28;20541;-58
2023/09/01 02:48:39;;;;;;;0.40;0.40;;;;;;;20.63;70.26;100884.97;21081562;28;20152;-58
2023/09/01 02:58:41;;;;;;;0.65;0.45;;;;;;;20.62;70.18;100885.97;21081668;28;20048;-58
2023/09/01 03:08:43;;;;;;;0.65;0.45;;;;;;;20.60;70.11;100896.09;21080250;28;20044;-58
2023/09/01 03:18:44;;;;;;;0.60;0.40;;;;;;;20.58;69.85;100888.16;21079745;28;20097;-58
2023/09/01 03:28:49;;;;;;;0.50;0.40;;;;;;;20.57;70.05;100896.41;21079362;28;20492;-58
2023/09/01 03:38:54;;;;;;;1.27;0.77;;;;;;;20.57;70.07;100896.41;21077112;28;20101;-58
2023/09/01 03:48:56;;;;;;;0.50;0.50;;;;;;;20.54;69.91;100894.03;21076633;28;20128;-58
2023/09/01 03:58:57;;;;;;;0.45;0.40;;;;;;;20.54;69.86;100902.13;21077732;28;20051;-58
2023/09/01 04:08:59;;;;;;;0.50;0.50;;;;;;;20.51;69.94;100887.06;21075084;28;20055;-58
2023/09/01 04:19:01;;;;;;;0.60;0.52;;;;;;;20.49;69.67;100889.06;21075256;28;20052;-58
2023/09/01 04:29:03;;;;;;;0.60;0.50;;;;;;;20.48;69.59;100891.94;21073961;28;20055;-59
2023/09/01 04:39:06;;;;;;;0.45;0.45;;;;;;;20.46;69.38;100905.59;21090388;28;20500;-58
2023/09/01 04:49:07;;;;;;;0.45;0.45;;;;;;;20.45;69.32;100909.31;21073074;28;20504;-58
2023/09/01 04:59:09;;;;;;;1.85;0.60;;;;;;;20.45;69.17;100913.88;21087099;28;20070;-58
2023/09/01 05:09:11;;;;;;;0.75;0.40;;;;;;;20.42;69.22;100925.84;21054557;28;20058;-58
2023/09/01 05:19:13;;;;;;;0.90;0.50;;;;;;;20.37;69.13;100918.19;21071710;28;20070;-58
2023/09/01 05:29:15;;;;;;;0.73;0.47;;;;;;;20.37;69.23;100926.31;21071369;28;20452;-59
2023/09/01 05:39:18;;;;;;;0.90;0.52;;;;;;;20.36;69.17;100926.44;21068255;28;20112;-58
2023/09/01 05:49:19;;;;;;;0.50;0.50;;;;;;;20.35;69.11;100930.16;21070136;28;20135;-58
2023/09/01 05:59:21;;;;;;;1.80;0.60;;;;;;;20.35;69.09;100947.25;21070386;28;20058;-59
2023/09/01 06:09:23;;;;;;;1.08;0.55;;;;;;;20.35;69.23;100952.66;21073892;28;20048;-58
2023/09/01 06:19:25;;;;;;;0.77;0.65;;;;;;;20.36;69.52;100943.53;21101291;28;20104;-58
2023/09/01 06:29:27;;;;;;;0.85;0.70;;;;;;;20.40;69.85;100955.75;21072605;28;20092;-58
2023/09/01 06:39:28;;;;;;;1.00;0.60;;;;;;;20.48;70.84;100951.44;21106012;28;20052;-58
2023/09/01 06:49:31;;;;;;;0.40;0.40;;;;;;;20.48;71.34;100946.03;21108358;28;20043;-58
2023/09/01 06:59:33;;;;;;;1.70;0.77;;;;;;;20.62;71.97;100948.19;21112471;28;20100;-58
2023/09/01 07:09:37;;;;;;;2.33;1.10;;;;;;;20.71;73.01;100949.97;21114613;28;20093;-58
2023/09/01 07:19:39;;;;;;;6.30;1.25;;;;;;;20.79;74.40;100954.66;21097814;28;20049;-57
2023/09/01 07:29:41;;;;;;;3.47;1.00;;;;;;;20.89;74.49;100961.84;21048361;28;20052;-58
2023/09/01 07:39:43;;;;;;;2.35;1.20;;;;;;;20.93;74.29;100947.84;21061411;28;20097;-58
2023/09/01 07:49:44;;;;;;;1.67;1.10;;;;;;;20.99;74.52;100959.88;21062748;28;20067;-58
2023/09/01 07:59:47;;;;;;;1.85;1.17;;;;;;;21.04;74.32;100965.72;21055764;28;20052;-59
2023/09/01 08:09:49;;;;;;;1.80;1.27;;;;;;;21.08;74.22;100952.69;21073355;28;20061;-58
2023/09/01 08:19:50;;;;;;;3.55;1.27;;;;;;;21.20;74.69;100962.28;21046100;28;20055;-58
2023/09/01 08:29:52;;;;;;;2.03;1.20;;;;;;;21.35;73.53;100965.25;21060097;28;20499;-58
2023/09/01 08:39:55;;;;;;;3.03;1.10;;;;;;;21.41;73.65;100967.34;21072576;28;20047;-58
2023/09/01 08:50:02;;;;;;;1.45;0.90;;;;;;;21.46;73.58;100969.59;21078456;28;20063;-58
2023/09/01 09:00:08;;;;;;;1.38;0.95;;;;;;;21.50;73.69;100978.25;21080123;28;20040;-58
2023/09/01 09:10:10;;;;;;;2.78;1.00;;;;;;;21.49;74.20;100979.28;21084194;28;20126;-58
2023/09/01 09:20:14;;;;;;;4.55;1.02;;;;;;;21.53;74.56;100980.66;21068535;28;20043;-58
2023/09/01 09:30:16;;;;;;;2.22;1.13;;;;;;;21.58;74.83;100976.44;21079844;28;20050;-58
2023/09/01 09:40:17;;;;;;;2.10;1.65;;;;;;;21.66;74.97;100982.97;21066203;28;20106;-58
2023/09/01 09:50:20;;;;;;;3.90;1.70;;;;;;;21.69;75.09;100988.91;21084326;28;20066;-58
2023/09/01 10:00:22;;;;;;;4.18;1.60;;;;;;;21.70;75.09;100979.75;21096742;28;20056;-58
2023/09/01 10:10:24;;;;;;;3.67;1.98;;;;;;;21.69;74.94;100975.34;21092582;28;20048;-58
2023/09/01 10:20:26;;;;;;;3.38;1.55;;;;;;;21.69;74.99;100986.19;21091199;28;20085;-58
2023/09/01 10:30:33;;;;;;;2.30;1.70;;;;;;;21.69;75.20;101004.31;21077975;28;20082;-58
2023/09/01 10:40:48;;;;;;;2.15;1.27;;;;;;;21.63;75.22;100996.78;21101948;28;20050;-58
2023/09/01 10:51:18;;;;;;;1.45;1.20;;;;;;;21.66;75.03;101012.78;21076510;28;20071;-58
2023/09/01 11:01:39;;;;;;;1.85;1.40;;;;;;;21.62;75.12;101014.03;21085490;28;20137;-58
2023/09/01 11:11:49;;;;;;;3.25;1.50;;;;;;;21.58;75.13;101022.47;21077837;28;20047;-58
2023/09/01 11:21:51;;;;;;;1.63;1.20;;;;;;;21.56;75.48;101021.78;21082924;28;20573;-58
2023/09/01 11:31:53;;;;;;;3.20;1.60;;;;;;;21.55;75.71;101030.94;21100350;28;20056;-58
2023/09/01 11:41:55;;;;;;;2.03;1.40;;;;;;;21.52;75.67;101025.81;21077382;28;20071;-58
2023/09/01 11:51:58;;;;;;;1.67;1.35;;;;;;;21.54;76.08;101029.22;21091488;27;20059;-59
2023/09/01 12:02:00;;;;;;;2.70;1.30;;;;;;;21.56;76.21;101035.34;21087797;28;20062;-58
2023/09/01 12:12:09;;;;;;;1.90;1.70;;;;;;;21.58;76.33;101033.31;21083161;28;20495;-58
2023/09/01 12:22:11;;;;;;;2.80;1.85;;;;;;;21.62;76.14;101046.56;21066150;28;20063;-58
2023/09/01 12:32:13;;;;;;;2.22;1.20;;;;;;;21.64;75.87;101050.84;21070852;28;20052;-58
2023/09/01 12:42:15;;;;;;;1.90;1.15;;;;;;;21.65;75.98;101059.81;21091149;28;20104;-58
2023/09/01 12:52:17;;;;;;;2.63;1.42;;;;;;;21.67;75.89;101063.25;21078682;28;20454;-58
2023/09/01 13:02:20;;;;;;;3.33;1.67;;;;;;;21.55;75.56;101041.75;21076022;28;20047;-58
2023/09/01 13:12:22;;;;;;;1.90;1.13;;;;;;;21.70;75.79;101044.78;21074262;28;20513;-58
2023/09/01 13:22:25;;;;;;;1.40;1.25;;;;;;;21.75;75.66;101057.88;21057334;28;20044;-58
2023/09/01 13:32:27;;;;;;;2.22;1.23;;;;;;;21.77;75.47;101050.44;21062756;28;20754;-58
2023/09/01 13:42:29;;;;;;;1.77;1.20;;;;;;;21.81;75.10;101045.53;21060072;28;20052;-59
2023/09/01 13:52:30;;;;;;;1.60;1.10;;;;;;;21.82;75.21;101049.94;21067062;28;20048;-58
2023/09/01 14:02:33;;;;;;;2.10;1.30;;;;;;;21.82;75.47;101044.53;21061742;28;20388;-59
2023/09/01 14:12:35;;;;;;;3.90;1.73;;;;;;;21.83;75.38;101044.38;21061330;28;20591;-58
2023/09/01 14:22:36;;;;;;;1.80;1.40;;;;;;;21.80;75.34;101071.81;21075197;28;20420;-58
2023/09/01 14:32:38;;;;;;;2.78;1.30;;;;;;;21.79;75.57;101069.22;21054544;28;20056;-58
2023/09/01 14:42:46;;;;;;;3.10;1.58;;;;;;;21.77;75.53;101072.13;21075906;28;20130;-60
2023/09/01 14:52:48;;;;;;;1.60;1.25;;;;;;;21.75;75.46;101066.00;21058709;28;20060;-58
2023/09/01 15:02:50;;;;;;;3.00;1.30;;;;;;;21.75;75.60;101070.56;21065081;28;20067;-58
2023/09/01 15:12:51;;;;;;;3.70;1.23;;;;;;;21.74;76.18;101061.59;21080339;28;20091;-58
2023/09/01 15:22:53;;;;;;;1.60;1.40;;;;;;;21.77;76.55;101065.84;21072656;28;20067;-59
2023/09/01 15:32:55;;;;;;;2.40;1.50;;;;;;;21.78;76.77;101073.81;21072274;28;20052;-59
2023/09/01 15:42:58;;;;;;;2.15;1.30;;;;;;;21.73;76.66;101081.56;21064130;28;20051;-58
2023/09/01 15:53:00;;;;;;;3.75;1.85;;;;;;;21.83;78.33;101097.72;21058466;28;20057;-59
2023/09/01 16:03:04;;;;;;;4.43;1.77;;;;;;;21.85;79.75;101096.56;21057530;28;20444;-59
2023/09/01 16:13:07;;;;;;;3.93;2.47;;;;;;;21.97;81.07;101104.44;21057196;28;20047;-59
2023/09/01 16:23:08;;;;;;;3.33;1.80;;;;;;;22.02;81.19;101112.94;21061929;28;20078;-58
2023/09/01 16:33:10;;;;;;;5.57;3.35;;;;;;;22.04;82.09;101105.50;21054929;28;20051;-59
2023/09/01 16:43:12;;;;;;;3.15;2.00;;;;;;;22.11;83.65;101114.72;21061835;28;20473;-59
2023/09/01 16:53:15;;;;;;;2.92;1.75;;;;;;;22.12;83.95;101124.56;21056882;28;20054;-59
2023/09/01 17:03:18;;;;;;;3.30;1.38;;;;;;;22.11;83.85;101128.28;21061225;28;20055;-59
2023/09/01 17:13:20;;;;;;;2.22;1.60;;;;;;;22.08;83.63;101136.69;21079572;28;20102;-58
2023/09/01 17:23:26;;;;;;;3.80;1.40;;;;;;;22.03;83.24;101152.59;21057166;28;20067;-58
2023/09/01 17:33:28;;;;;;;3.67;1.70;;;;;;;21.96;83.53;101146.97;21081501;28;20047;-58
2023/09/01 17:43:30;;;;;;;1.98;1.25;;;;;;;21.91;83.45;101145.72;21034759;28;20095;-59
2023/09/01 17:53:32;;;;;;;3.13;1.35;;;;;;;21.85;83.57;101156.19;21075673;28;20048;-58
2023/09/01 18:03:38;;;;;;;2.20;1.17;;;;;;;21.81;83.63;101173.78;21074122;28;20056;-59
2023/09/01 18:13:42;;;;;;;3.50;1.60;;;;;;;21.79;83.46;101189.34;21085687;28;20093;-59
2023/09/01 18:23:44;;;;;;;3.05;1.40;;;;;;;21.78;83.35;101197.59;21109209;28;20068;-59
2023/09/01 18:33:47;;;;;;;1.98;1.23;;;;;;;21.73;82.95;101212.47;21095114;28;20048;-59
2023/09/01 18:43:54;;;;;;;;;;;;;;;21.69;82.73;101226.50;21087953;28;20475;-59
2023/09/01 18:53:56;;;;;;;2.50;1.40;;;;;;;21.64;82.80;101226.09;21074796;28;19920;-59
2023/09/01 19:04:04;;;;;;;1.92;1.58;;;;;;;21.62;82.77;101233.47;21091965;28;20059;-59
2023/09/01 19:14:09;;;;;;;2.88;1.63;;;;;;;21.59;82.66;101227.38;21079873;28;20058;-59
2023/09/01 19:24:11;;;;;;;1.83;1.45;;;;;;;21.50;82.50;101243.72;21080517;28;20052;-59
2023/09/01 19:34:13;;;;;;;1.70;1.38;;;;;;;21.47;82.41;101261.09;21080570;28;20048;-59
2023/09/01 19:44:18;;;;;;;2.40;1.30;;;;;;;21.43;82.20;101265.13;21077975;28;20055;-59
2023/09/01 19:54:23;;;;;;;1.80;1.40;;;;;;;21.39;82.21;101285.38;21077966;28;20052;-59
2023/09/01 20:04:25;;;;;;;1.92;1.40;;;;;;;21.32;81.83;101290.53;21074535;28;20075;-59
2023/09/01 20:14:27;;;;;;;2.45;1.60;;;;;;;21.33;82.30;101299.53;21002077;28;20123;-59
2023/09/01 20:24:29;;;;;;;2.80;1.80;;;;;;;21.34;83.31;101314.78;20992479;28;20059;-59
2023/09/01 20:34:30;;;;;;;4.32;2.00;;;;;;;21.33;83.66;101329.31;20988598;28;20052;-59
2023/09/01 20:44:32;;;;;;;1.90;1.63;;;;;;;21.32;83.79;101339.28;20990372;28;20056;-59
2023/09/01 20:54:34;;;;;;;2.72;1.60;;;;;;;21.27;83.56;101349.72;20990007;28;20044;-59
2023/09/01 21:04:35;;;;;;;2.28;1.70;;;;;;;21.23;83.46;101353.72;20989568;28;20047;-59
2023/09/01 21:14:37;;;;;;;2.08;1.50;;;;;;;21.20;83.11;101341.31;20989426;28;20059;-59
2023/09/01 21:24:39;;;;;;;4.72;1.83;;;;;;;21.18;82.95;101358.72;20986586;28;20051;-59
2023/09/01 21:34:41;;;;;;;1.98;1.58;;;;;;;21.17;82.81;101374.09;20987578;28;20451;-59
2023/09/01 21:44:43;;;;;;;1.67;1.30;;;;;;;21.19;82.54;101371.25;21002378;28;20052;-59
2023/09/01 21:54:44;;;;;;;1.40;1.30;;;;;;;21.21;82.12;101390.91;21003469;28;20064;-60
2023/09/01 22:04:46;;;;;;;2.60;1.42;;;;;;;21.21;81.81;101397.19;21019832;28;20400;-59
2023/09/01 22:14:54;;;;;;;1.92;1.40;;;;;;;21.21;81.45;101402.63;21087020;28;20109;-59
2023/09/01 22:24:56;;;;;;;1.63;1.27;;;;;;;21.19;81.03;101409.16;21086354;28;20056;-59
2023/09/01 22:34:57;;;;;;;1.70;1.60;;;;;;;21.16;80.54;101399.47;21084896;28;20052;-59
2023/09/01 22:44:59;;;;;;;1.23;1.13;;;;;;;21.16;80.46;101415.72;21083927;28;20052;-59
2023/09/01 22:55:01;;;;;;;1.92;0.98;;;;;;;21.14;80.42;101423.13;21082459;28;20419;-59
2023/09/01 23:05:04;;;;;;;1.33;1.23;;;;;;;21.12;79.96;101427.84;21082984;28;20044;-59
2023/09/01 23:15:06;;;;;;;1.00;0.90;;;;;;;21.09;79.77;101430.84;21082213;28;20052;-59
2023/09/01 23:25:08;;;;;;;1.20;1.10;;;;;;;21.05;79.76;101434.81;21080835;28;20048;-59
2023/09/01 23:35:10;;;;;;;1.00;0.90;;;;;;;21.05;79.62;101437.53;21080923;28;20052;-59
2023/09/01 23:45:12;;;;;;;1.17;1.08;;;;;;;21.01;79.37;101445.09;21079021;28;20044;-59
2023/09/01 23:55:14;;;;;;;1.30;0.98;;;;;;;21.00;79.21;101438.00;21078720;28;20404;-59
